sensor_id;sensor_type;location;lat;lon;timestamp;P1;durP1;ratioP1;P2;durP2;ratioP2
6376;SDS011;3221;48.858;10.128;2023-04-25T00:01:56;8.00;;;4.00;;
6376;SDS011;3221;48.858;10.128;2023-04-25T00:04:23;6.83;;;3.43;;
6376;SDS011;3221;48.858;10.128;2023-04-25T00:06:50;4.53;;;3.33;;
6376;SDS011;3221;48.858;10.128;2023-04-25T00:09:18;5.03;;;3.40;;
6376;SDS011;3221;48.858;10.128;2023-04-25T00:11:45;5.60;;;3.20;;
6376;SDS011;3221;48.858;10.128;2023-04-25T00:14:12;7.00;;;3.90;;
6376;SDS011;3221;48.858;10.128;2023-04-25T00:16:39;5.97;;;3.63;;
6376;SDS011;3221;48.858;10.128;2023-04-25T00:19:07;6.60;;;3.60;;
6376;SDS011;3221;48.858;10.128;2023-04-25T00:21:35;7.13;;;3.57;;
6376;SDS011;3221;48.858;10.128;2023-04-25T00:24:04;5.00;;;2.90;;
6376;SDS011;3221;48.858;10.128;2023-04-25T00:26:31;7.50;;;3.30;;
6376;SDS011;3221;48.858;10.128;2023-04-25T00:28:58;5.30;;;3.57;;
6376;SDS011;3221;48.858;10.128;2023-04-25T00:31:24;8.80;;;3.60;;
6376;SDS011;3221;48.858;10.128;2023-04-25T00:33:51;9.77;;;3.93;;
6376;SDS011;3221;48.858;10.128;2023-04-25T00:36:19;5.97;;;3.80;;
6376;SDS011;3221;48.858;10.128;2023-04-25T00:38:46;10.70;;;4.20;;
6376;SDS011;3221;48.858;10.128;2023-04-25T00:41:13;7.57;;;3.50;;
6376;SDS011;3221;48.858;10.128;2023-04-25T00:43:40;7.53;;;3.60;;
6376;SDS011;3221;48.858;10.128;2023-04-25T00:46:08;8.53;;;4.10;;
6376;SDS011;3221;48.858;10.128;2023-04-25T00:48:35;6.97;;;3.53;;
6376;SDS011;3221;48.858;10.128;2023-04-25T00:51:01;8.73;;;3.70;;
6376;SDS011;3221;48.858;10.128;2023-04-25T00:53:28;5.70;;;3.27;;
6376;SDS011;3221;48.858;10.128;2023-04-25T00:55:58;7.37;;;3.20;;
6376;SDS011;3221;48.858;10.128;2023-04-25T00:58:25;5.00;;;3.60;;
6376;SDS011;3221;48.858;10.128;2023-04-25T01:00:52;5.47;;;4.10;;
6376;SDS011;3221;48.858;10.128;2023-04-25T01:03:19;5.87;;;4.60;;
6376;SDS011;3221;48.858;10.128;2023-04-25T01:05:47;7.17;;;5.20;;
6376;SDS011;3221;48.858;10.128;2023-04-25T01:08:14;4.90;;;3.83;;
6376;SDS011;3221;48.858;10.128;2023-04-25T01:10:41;4.03;;;3.30;;
6376;SDS011;3221;48.858;10.128;2023-04-25T01:13:08;5.27;;;4.00;;
6376;SDS011;3221;48.858;10.128;2023-04-25T01:15:35;4.90;;;3.90;;
6376;SDS011;3221;48.858;10.128;2023-04-25T01:18:03;5.33;;;3.60;;
6376;SDS011;3221;48.858;10.128;2023-04-25T01:20:32;4.57;;;3.40;;
6376;SDS011;3221;48.858;10.128;2023-04-25T01:23:00;3.83;;;3.40;;
6376;SDS011;3221;48.858;10.128;2023-04-25T01:25:32;4.80;;;3.50;;
6376;SDS011;3221;48.858;10.128;2023-04-25T01:27:59;3.43;;;3.13;;
6376;SDS011;3221;48.858;10.128;2023-04-25T01:30:27;4.97;;;3.43;;
6376;SDS011;3221;48.858;10.128;2023-04-25T01:32:56;4.37;;;3.50;;
6376;SDS011;3221;48.858;10.128;2023-04-25T01:35:23;5.87;;;3.67;;
6376;SDS011;3221;48.858;10.128;2023-04-25T01:37:53;3.70;;;3.40;;
6376;SDS011;3221;48.858;10.128;2023-04-25T01:40:20;5.70;;;4.00;;
6376;SDS011;3221;48.858;10.128;2023-04-25T01:42:48;9.10;;;4.10;;
6376;SDS011;3221;48.858;10.128;2023-04-25T01:45:15;6.73;;;4.10;;
6376;SDS011;3221;48.858;10.128;2023-04-25T01:47:42;4.97;;;4.13;;
6376;SDS011;3221;48.858;10.128;2023-04-25T01:50:13;5.33;;;4.10;;
6376;SDS011;3221;48.858;10.128;2023-04-25T01:52:40;5.17;;;3.80;;
6376;SDS011;3221;48.858;10.128;2023-04-25T01:55:07;3.80;;;3.40;;
6376;SDS011;3221;48.858;10.128;2023-04-25T01:57:38;5.97;;;3.70;;
6376;SDS011;3221;48.858;10.128;2023-04-25T02:00:05;4.43;;;3.50;;
6376;SDS011;3221;48.858;10.128;2023-04-25T02:02:39;5.40;;;3.47;;
6376;SDS011;3221;48.858;10.128;2023-04-25T02:05:16;5.47;;;3.80;;
6376;SDS011;3221;48.858;10.128;2023-04-25T02:07:44;5.17;;;3.20;;
6376;SDS011;3221;48.858;10.128;2023-04-25T02:10:11;5.43;;;3.37;;
6376;SDS011;3221;48.858;10.128;2023-04-25T02:12:56;5.87;;;3.10;;
6376;SDS011;3221;48.858;10.128;2023-04-25T02:15:47;6.10;;;3.00;;
6376;SDS011;3221;48.858;10.128;2023-04-25T02:18:16;4.43;;;3.03;;
6376;SDS011;3221;48.858;10.128;2023-04-25T02:20:43;8.57;;;3.50;;
6376;SDS011;3221;48.858;10.128;2023-04-25T02:23:10;5.40;;;3.00;;
6376;SDS011;3221;48.858;10.128;2023-04-25T02:25:37;5.63;;;3.00;;
6376;SDS011;3221;48.858;10.128;2023-04-25T02:28:04;8.60;;;3.30;;
6376;SDS011;3221;48.858;10.128;2023-04-25T02:30:31;5.83;;;3.00;;
6376;SDS011;3221;48.858;10.128;2023-04-25T02:32:58;3.17;;;2.87;;
6376;SDS011;3221;48.858;10.128;2023-04-25T02:35:25;4.97;;;3.10;;
6376;SDS011;3221;48.858;10.128;2023-04-25T02:37:53;4.40;;;2.97;;
6376;SDS011;3221;48.858;10.128;2023-04-25T02:40:20;4.50;;;3.43;;
6376;SDS011;3221;48.858;10.128;2023-04-25T02:42:46;5.17;;;3.10;;
6376;SDS011;3221;48.858;10.128;2023-04-25T02:45:13;8.93;;;3.50;;
6376;SDS011;3221;48.858;10.128;2023-04-25T02:47:41;4.77;;;3.50;;
6376;SDS011;3221;48.858;10.128;2023-04-25T02:50:08;5.23;;;3.30;;
6376;SDS011;3221;48.858;10.128;2023-04-25T02:52:35;4.80;;;3.10;;
6376;SDS011;3221;48.858;10.128;2023-04-25T02:55:15;6.20;;;3.37;;
6376;SDS011;3221;48.858;10.128;2023-04-25T02:57:43;3.63;;;3.20;;
6376;SDS011;3221;48.858;10.128;2023-04-25T03:00:14;5.50;;;3.17;;
6376;SDS011;3221;48.858;10.128;2023-04-25T03:02:41;3.30;;;3.00;;
6376;SDS011;3221;48.858;10.128;2023-04-25T03:05:08;5.77;;;4.00;;
6376;SDS011;3221;48.858;10.128;2023-04-25T03:07:36;6.97;;;3.83;;
6376;SDS011;3221;48.858;10.128;2023-04-25T03:10:06;7.60;;;3.50;;
6376;SDS011;3221;48.858;10.128;2023-04-25T03:12:34;6.77;;;3.63;;
6376;SDS011;3221;48.858;10.128;2023-04-25T03:15:02;5.63;;;3.67;;
6376;SDS011;3221;48.858;10.128;2023-04-25T03:17:30;9.23;;;3.90;;
6376;SDS011;3221;48.858;10.128;2023-04-25T03:19:57;8.13;;;4.10;;
6376;SDS011;3221;48.858;10.128;2023-04-25T03:22:24;8.30;;;4.37;;
6376;SDS011;3221;48.858;10.128;2023-04-25T03:24:51;7.20;;;4.10;;
6376;SDS011;3221;48.858;10.128;2023-04-25T03:27:18;7.10;;;4.27;;
6376;SDS011;3221;48.858;10.128;2023-04-25T03:29:45;7.33;;;4.13;;
6376;SDS011;3221;48.858;10.128;2023-04-25T03:32:12;7.20;;;4.17;;
6376;SDS011;3221;48.858;10.128;2023-04-25T03:34:39;8.53;;;4.10;;
6376;SDS011;3221;48.858;10.128;2023-04-25T03:37:08;5.27;;;4.23;;
6376;SDS011;3221;48.858;10.128;2023-04-25T03:39:37;4.97;;;3.73;;
6376;SDS011;3221;48.858;10.128;2023-04-25T03:42:05;5.67;;;3.90;;
6376;SDS011;3221;48.858;10.128;2023-04-25T03:44:32;4.87;;;3.90;;
6376;SDS011;3221;48.858;10.128;2023-04-25T03:47:00;4.80;;;4.00;;
6376;SDS011;3221;48.858;10.128;2023-04-25T03:49:28;8.53;;;4.40;;
6376;SDS011;3221;48.858;10.128;2023-04-25T03:51:58;6.40;;;4.20;;
6376;SDS011;3221;48.858;10.128;2023-04-25T03:54:29;5.23;;;3.93;;
6376;SDS011;3221;48.858;10.128;2023-04-25T03:57:12;5.47;;;4.00;;
6376;SDS011;3221;48.858;10.128;2023-04-25T03:59:41;6.73;;;4.23;;
6376;SDS011;3221;48.858;10.128;2023-04-25T04:02:10;5.33;;;4.33;;
6376;SDS011;3221;48.858;10.128;2023-04-25T04:04:38;7.83;;;4.70;;
6376;SDS011;3221;48.858;10.128;2023-04-25T04:07:06;6.97;;;4.33;;
6376;SDS011;3221;48.858;10.128;2023-04-25T04:09:35;7.40;;;4.47;;
6376;SDS011;3221;48.858;10.128;2023-04-25T04:12:07;6.93;;;4.73;;
6376;SDS011;3221;48.858;10.128;2023-04-25T04:14:36;6.23;;;4.63;;
6376;SDS011;3221;48.858;10.128;2023-04-25T04:17:03;5.73;;;4.10;;
6376;SDS011;3221;48.858;10.128;2023-04-25T04:19:30;6.57;;;4.37;;
6376;SDS011;3221;48.858;10.128;2023-04-25T04:22:29;5.77;;;4.50;;
6376;SDS011;3221;48.858;10.128;2023-04-25T04:25:00;6.10;;;4.43;;
6376;SDS011;3221;48.858;10.128;2023-04-25T04:27:47;5.50;;;4.30;;
6376;SDS011;3221;48.858;10.128;2023-04-25T04:30:26;6.00;;;4.30;;
6376;SDS011;3221;48.858;10.128;2023-04-25T04:32:57;6.73;;;4.23;;
6376;SDS011;3221;48.858;10.128;2023-04-25T04:35:24;5.63;;;4.03;;
6376;SDS011;3221;48.858;10.128;2023-04-25T04:37:52;6.50;;;4.50;;
6376;SDS011;3221;48.858;10.128;2023-04-25T04:40:21;6.60;;;4.80;;
6376;SDS011;3221;48.858;10.128;2023-04-25T04:43:04;8.30;;;4.23;;
6376;SDS011;3221;48.858;10.128;2023-04-25T04:45:50;5.90;;;4.27;;
6376;SDS011;3221;48.858;10.128;2023-04-25T04:48:31;7.90;;;4.40;;
6376;SDS011;3221;48.858;10.128;2023-04-25T04:51:19;5.77;;;4.60;;
6376;SDS011;3221;48.858;10.128;2023-04-25T04:53:53;6.27;;;4.20;;
6376;SDS011;3221;48.858;10.128;2023-04-25T04:56:49;4.70;;;3.90;;
6376;SDS011;3221;48.858;10.128;2023-04-25T04:59:17;4.37;;;3.77;;
6376;SDS011;3221;48.858;10.128;2023-04-25T05:02:19;4.80;;;4.20;;
6376;SDS011;3221;48.858;10.128;2023-04-25T05:05:14;6.47;;;4.23;;
6376;SDS011;3221;48.858;10.128;2023-04-25T05:07:56;5.70;;;4.50;;
6376;SDS011;3221;48.858;10.128;2023-04-25T05:10:38;5.70;;;4.23;;
6376;SDS011;3221;48.858;10.128;2023-04-25T05:13:17;5.20;;;4.53;;
6376;SDS011;3221;48.858;10.128;2023-04-25T05:15:57;6.60;;;5.40;;
6376;SDS011;3221;48.858;10.128;2023-04-25T05:18:33;7.57;;;5.20;;
6376;SDS011;3221;48.858;10.128;2023-04-25T05:21:08;5.63;;;4.70;;
6376;SDS011;3221;48.858;10.128;2023-04-25T05:23:54;6.50;;;5.20;;
6376;SDS011;3221;48.858;10.128;2023-04-25T05:26:41;6.87;;;4.43;;
6376;SDS011;3221;48.858;10.128;2023-04-25T05:29:22;5.93;;;4.50;;
6376;SDS011;3221;48.858;10.128;2023-04-25T05:32:21;6.40;;;4.23;;
6376;SDS011;3221;48.858;10.128;2023-04-25T05:34:49;8.17;;;4.53;;
6376;SDS011;3221;48.858;10.128;2023-04-25T05:37:24;8.43;;;4.70;;
6376;SDS011;3221;48.858;10.128;2023-04-25T05:39:55;7.63;;;4.50;;
6376;SDS011;3221;48.858;10.128;2023-04-25T05:42:45;6.60;;;3.90;;
6376;SDS011;3221;48.858;10.128;2023-04-25T05:45:28;6.73;;;4.33;;
6376;SDS011;3221;48.858;10.128;2023-04-25T05:47:57;7.70;;;4.40;;
6376;SDS011;3221;48.858;10.128;2023-04-25T05:50:47;5.93;;;4.53;;
6376;SDS011;3221;48.858;10.128;2023-04-25T05:53:46;6.93;;;5.20;;
6376;SDS011;3221;48.858;10.128;2023-04-25T05:56:14;8.20;;;4.93;;
6376;SDS011;3221;48.858;10.128;2023-04-25T05:58:41;9.33;;;5.80;;
6376;SDS011;3221;48.858;10.128;2023-04-25T06:01:11;8.00;;;5.53;;
6376;SDS011;3221;48.858;10.128;2023-04-25T06:03:38;7.57;;;5.10;;
6376;SDS011;3221;48.858;10.128;2023-04-25T06:06:09;7.33;;;4.97;;
6376;SDS011;3221;48.858;10.128;2023-04-25T06:08:37;7.47;;;4.70;;
6376;SDS011;3221;48.858;10.128;2023-04-25T06:11:04;6.30;;;5.00;;
6376;SDS011;3221;48.858;10.128;2023-04-25T06:13:32;6.60;;;5.07;;
6376;SDS011;3221;48.858;10.128;2023-04-25T06:15:59;9.27;;;5.50;;
6376;SDS011;3221;48.858;10.128;2023-04-25T06:18:27;6.33;;;5.17;;
6376;SDS011;3221;48.858;10.128;2023-04-25T06:20:54;8.80;;;5.00;;
6376;SDS011;3221;48.858;10.128;2023-04-25T06:23:22;5.70;;;4.60;;
6376;SDS011;3221;48.858;10.128;2023-04-25T06:25:58;7.37;;;4.90;;
6376;SDS011;3221;48.858;10.128;2023-04-25T06:28:26;5.57;;;4.83;;
6376;SDS011;3221;48.858;10.128;2023-04-25T06:30:53;6.63;;;4.80;;
6376;SDS011;3221;48.858;10.128;2023-04-25T06:33:21;6.73;;;5.30;;
6376;SDS011;3221;48.858;10.128;2023-04-25T06:35:48;7.37;;;5.00;;
6376;SDS011;3221;48.858;10.128;2023-04-25T06:38:20;6.73;;;4.97;;
6376;SDS011;3221;48.858;10.128;2023-04-25T06:40:49;7.63;;;5.00;;
6376;SDS011;3221;48.858;10.128;2023-04-25T06:43:18;7.80;;;5.90;;
6376;SDS011;3221;48.858;10.128;2023-04-25T06:45:45;5.57;;;4.97;;
6376;SDS011;3221;48.858;10.128;2023-04-25T06:48:14;6.97;;;4.83;;
6376;SDS011;3221;48.858;10.128;2023-04-25T06:50:41;6.07;;;4.60;;
6376;SDS011;3221;48.858;10.128;2023-04-25T06:53:10;8.67;;;6.03;;
6376;SDS011;3221;48.858;10.128;2023-04-25T06:55:39;9.50;;;6.20;;
6376;SDS011;3221;48.858;10.128;2023-04-25T06:58:17;8.33;;;5.83;;
6376;SDS011;3221;48.858;10.128;2023-04-25T07:01:03;7.77;;;5.83;;
6376;SDS011;3221;48.858;10.128;2023-04-25T07:03:30;6.77;;;5.13;;
6376;SDS011;3221;48.858;10.128;2023-04-25T07:06:02;6.67;;;5.10;;
6376;SDS011;3221;48.858;10.128;2023-04-25T07:08:29;7.57;;;5.80;;
6376;SDS011;3221;48.858;10.128;2023-04-25T07:10:57;7.33;;;5.80;;
6376;SDS011;3221;48.858;10.128;2023-04-25T07:13:24;5.80;;;5.20;;
6376;SDS011;3221;48.858;10.128;2023-04-25T07:15:51;7.00;;;5.53;;
6376;SDS011;3221;48.858;10.128;2023-04-25T07:18:22;7.03;;;5.67;;
6376;SDS011;3221;48.858;10.128;2023-04-25T07:20:49;8.23;;;6.03;;
6376;SDS011;3221;48.858;10.128;2023-04-25T07:23:17;6.30;;;5.70;;
6376;SDS011;3221;48.858;10.128;2023-04-25T07:25:45;7.87;;;5.90;;
6376;SDS011;3221;48.858;10.128;2023-04-25T07:28:15;7.60;;;5.73;;
6376;SDS011;3221;48.858;10.128;2023-04-25T07:30:46;8.43;;;5.70;;
6376;SDS011;3221;48.858;10.128;2023-04-25T07:33:13;7.07;;;5.87;;
6376;SDS011;3221;48.858;10.128;2023-04-25T07:35:40;7.43;;;6.00;;
6376;SDS011;3221;48.858;10.128;2023-04-25T07:38:07;7.63;;;5.87;;
6376;SDS011;3221;48.858;10.128;2023-04-25T07:40:34;7.17;;;5.50;;
6376;SDS011;3221;48.858;10.128;2023-04-25T07:43:05;6.87;;;6.17;;
6376;SDS011;3221;48.858;10.128;2023-04-25T07:45:40;6.67;;;5.97;;
6376;SDS011;3221;48.858;10.128;2023-04-25T07:48:07;6.97;;;5.70;;
6376;SDS011;3221;48.858;10.128;2023-04-25T07:50:37;5.80;;;5.20;;
6376;SDS011;3221;48.858;10.128;2023-04-25T07:53:04;5.80;;;4.93;;
6376;SDS011;3221;48.858;10.128;2023-04-25T07:55:36;6.80;;;5.40;;
6376;SDS011;3221;48.858;10.128;2023-04-25T07:58:11;7.00;;;5.67;;
6376;SDS011;3221;48.858;10.128;2023-04-25T08:00:40;9.23;;;5.50;;
6376;SDS011;3221;48.858;10.128;2023-04-25T08:03:27;7.50;;;5.37;;
6376;SDS011;3221;48.858;10.128;2023-04-25T08:05:56;5.70;;;4.90;;
6376;SDS011;3221;48.858;10.128;2023-04-25T08:08:26;6.53;;;4.90;;
6376;SDS011;3221;48.858;10.128;2023-04-25T08:10:53;7.13;;;5.20;;
6376;SDS011;3221;48.858;10.128;2023-04-25T08:13:20;7.53;;;6.07;;
6376;SDS011;3221;48.858;10.128;2023-04-25T08:15:47;7.93;;;4.97;;
6376;SDS011;3221;48.858;10.128;2023-04-25T08:18:14;7.27;;;5.40;;
6376;SDS011;3221;48.858;10.128;2023-04-25T08:20:44;6.50;;;5.40;;
6376;SDS011;3221;48.858;10.128;2023-04-25T08:23:13;6.03;;;5.40;;
6376;SDS011;3221;48.858;10.128;2023-04-25T08:25:59;6.67;;;5.13;;
6376;SDS011;3221;48.858;10.128;2023-04-25T08:28:27;6.77;;;5.30;;
6376;SDS011;3221;48.858;10.128;2023-04-25T08:30:57;7.37;;;5.37;;
6376;SDS011;3221;48.858;10.128;2023-04-25T08:33:26;6.53;;;4.97;;
6376;SDS011;3221;48.858;10.128;2023-04-25T08:36:00;7.57;;;4.97;;
6376;SDS011;3221;48.858;10.128;2023-04-25T08:38:29;7.70;;;5.13;;
6376;SDS011;3221;48.858;10.128;2023-04-25T08:40:56;4.87;;;4.40;;
6376;SDS011;3221;48.858;10.128;2023-04-25T08:43:26;4.70;;;4.20;;
6376;SDS011;3221;48.858;10.128;2023-04-25T08:45:58;4.67;;;4.20;;
6376;SDS011;3221;48.858;10.128;2023-04-25T08:48:34;5.67;;;4.13;;
6376;SDS011;3221;48.858;10.128;2023-04-25T08:51:03;4.53;;;3.97;;
6376;SDS011;3221;48.858;10.128;2023-04-25T08:53:37;5.73;;;4.10;;
6376;SDS011;3221;48.858;10.128;2023-04-25T08:56:09;6.07;;;4.17;;
6376;SDS011;3221;48.858;10.128;2023-04-25T08:58:39;5.90;;;4.00;;
6376;SDS011;3221;48.858;10.128;2023-04-25T09:01:07;5.33;;;4.00;;
6376;SDS011;3221;48.858;10.128;2023-04-25T09:03:43;10.17;;;4.93;;
6376;SDS011;3221;48.858;10.128;2023-04-25T09:06:11;5.00;;;4.17;;
6376;SDS011;3221;48.858;10.128;2023-04-25T09:08:38;4.80;;;4.30;;
6376;SDS011;3221;48.858;10.128;2023-04-25T09:11:07;8.40;;;4.47;;
6376;SDS011;3221;48.858;10.128;2023-04-25T09:13:34;7.13;;;4.13;;
6376;SDS011;3221;48.858;10.128;2023-04-25T09:16:19;4.87;;;3.77;;
6376;SDS011;3221;48.858;10.128;2023-04-25T09:19:15;4.73;;;4.20;;
6376;SDS011;3221;48.858;10.128;2023-04-25T09:22:13;4.43;;;3.90;;
6376;SDS011;3221;48.858;10.128;2023-04-25T09:24:42;4.43;;;3.50;;
6376;SDS011;3221;48.858;10.128;2023-04-25T09:27:13;4.80;;;3.23;;
6376;SDS011;3221;48.858;10.128;2023-04-25T09:29:46;5.07;;;3.50;;
6376;SDS011;3221;48.858;10.128;2023-04-25T09:32:21;3.90;;;3.37;;
6376;SDS011;3221;48.858;10.128;2023-04-25T09:34:54;4.80;;;3.70;;
6376;SDS011;3221;48.858;10.128;2023-04-25T09:37:26;5.97;;;3.53;;
6376;SDS011;3221;48.858;10.128;2023-04-25T09:40:13;3.73;;;3.30;;
6376;SDS011;3221;48.858;10.128;2023-04-25T09:42:54;5.13;;;3.37;;
6376;SDS011;3221;48.858;10.128;2023-04-25T09:45:23;4.80;;;3.40;;
6376;SDS011;3221;48.858;10.128;2023-04-25T09:47:50;5.43;;;3.83;;
6376;SDS011;3221;48.858;10.128;2023-04-25T09:50:25;5.17;;;3.67;;
6376;SDS011;3221;48.858;10.128;2023-04-25T09:53:02;6.13;;;4.10;;
6376;SDS011;3221;48.858;10.128;2023-04-25T09:55:47;5.00;;;4.00;;
6376;SDS011;3221;48.858;10.128;2023-04-25T09:58:14;5.17;;;4.00;;
6376;SDS011;3221;48.858;10.128;2023-04-25T10:00:42;4.97;;;4.20;;
6376;SDS011;3221;48.858;10.128;2023-04-25T10:03:22;4.93;;;4.40;;
6376;SDS011;3221;48.858;10.128;2023-04-25T10:06:18;7.23;;;4.37;;
6376;SDS011;3221;48.858;10.128;2023-04-25T10:08:49;4.40;;;4.00;;
6376;SDS011;3221;48.858;10.128;2023-04-25T10:11:19;9.23;;;4.40;;
6376;SDS011;3221;48.858;10.128;2023-04-25T10:13:49;6.93;;;4.60;;
6376;SDS011;3221;48.858;10.128;2023-04-25T10:16:17;4.90;;;3.93;;
6376;SDS011;3221;48.858;10.128;2023-04-25T10:18:45;4.93;;;4.43;;
6376;SDS011;3221;48.858;10.128;2023-04-25T10:21:11;6.00;;;4.27;;
6376;SDS011;3221;48.858;10.128;2023-04-25T10:23:40;6.40;;;4.80;;
6376;SDS011;3221;48.858;10.128;2023-04-25T10:26:08;5.90;;;5.13;;
6376;SDS011;3221;48.858;10.128;2023-04-25T10:28:54;5.10;;;4.60;;
6376;SDS011;3221;48.858;10.128;2023-04-25T10:31:26;8.63;;;5.57;;
6376;SDS011;3221;48.858;10.128;2023-04-25T10:33:53;9.97;;;6.10;;
6376;SDS011;3221;48.858;10.128;2023-04-25T10:36:21;7.40;;;5.97;;
6376;SDS011;3221;48.858;10.128;2023-04-25T10:38:49;6.43;;;5.77;;
6376;SDS011;3221;48.858;10.128;2023-04-25T10:41:17;7.23;;;5.87;;
6376;SDS011;3221;48.858;10.128;2023-04-25T10:43:46;7.53;;;6.20;;
6376;SDS011;3221;48.858;10.128;2023-04-25T10:46:24;7.27;;;6.57;;
6376;SDS011;3221;48.858;10.128;2023-04-25T10:48:53;8.10;;;6.53;;
6376;SDS011;3221;48.858;10.128;2023-04-25T10:56:28;8.33;;;6.60;;
6376;SDS011;3221;48.858;10.128;2023-04-25T10:59:18;9.07;;;6.70;;
6376;SDS011;3221;48.858;10.128;2023-04-25T11:01:46;9.03;;;7.00;;
6376;SDS011;3221;48.858;10.128;2023-04-25T11:04:19;9.90;;;7.47;;
6376;SDS011;3221;48.858;10.128;2023-04-25T11:09:40;9.63;;;6.53;;
6376;SDS011;3221;48.858;10.128;2023-04-25T11:12:08;8.97;;;6.70;;
6376;SDS011;3221;48.858;10.128;2023-04-25T11:14:35;11.17;;;7.23;;
6376;SDS011;3221;48.858;10.128;2023-04-25T11:17:02;9.23;;;7.10;;
6376;SDS011;3221;48.858;10.128;2023-04-25T11:19:29;8.90;;;7.20;;
6376;SDS011;3221;48.858;10.128;2023-04-25T11:21:57;10.17;;;7.10;;
6376;SDS011;3221;48.858;10.128;2023-04-25T11:24:30;7.97;;;6.93;;
6376;SDS011;3221;48.858;10.128;2023-04-25T11:26:59;8.83;;;7.03;;
6376;SDS011;3221;48.858;10.128;2023-04-25T11:29:30;7.73;;;6.40;;
6376;SDS011;3221;48.858;10.128;2023-04-25T11:31:58;8.47;;;6.70;;
6376;SDS011;3221;48.858;10.128;2023-04-25T11:34:27;10.83;;;7.27;;
6376;SDS011;3221;48.858;10.128;2023-04-25T11:36:57;6.97;;;6.10;;
6376;SDS011;3221;48.858;10.128;2023-04-25T11:39:24;6.53;;;5.70;;
6376;SDS011;3221;48.858;10.128;2023-04-25T11:41:52;7.57;;;5.83;;
6376;SDS011;3221;48.858;10.128;2023-04-25T11:44:20;8.13;;;6.80;;
6376;SDS011;3221;48.858;10.128;2023-04-25T11:46:48;6.93;;;5.83;;
6376;SDS011;3221;48.858;10.128;2023-04-25T11:49:15;9.43;;;6.60;;
6376;SDS011;3221;48.858;10.128;2023-04-25T11:51:44;8.93;;;6.17;;
6376;SDS011;3221;48.858;10.128;2023-04-25T11:54:12;6.87;;;6.10;;
6376;SDS011;3221;48.858;10.128;2023-04-25T11:56:43;7.83;;;5.30;;
6376;SDS011;3221;48.858;10.128;2023-04-25T11:59:11;7.20;;;5.73;;
6376;SDS011;3221;48.858;10.128;2023-04-25T12:01:40;6.37;;;5.60;;
6376;SDS011;3221;48.858;10.128;2023-04-25T12:04:23;8.53;;;5.90;;
6376;SDS011;3221;48.858;10.128;2023-04-25T12:06:52;7.73;;;5.97;;
6376;SDS011;3221;48.858;10.128;2023-04-25T12:09:30;6.10;;;5.17;;
6376;SDS011;3221;48.858;10.128;2023-04-25T12:11:59;8.97;;;6.47;;
6376;SDS011;3221;48.858;10.128;2023-04-25T12:14:30;6.90;;;6.17;;
6376;SDS011;3221;48.858;10.128;2023-04-25T12:16:59;7.87;;;6.37;;
6376;SDS011;3221;48.858;10.128;2023-04-25T12:19:34;7.07;;;6.03;;
6376;SDS011;3221;48.858;10.128;2023-04-25T12:22:02;7.53;;;5.63;;
6376;SDS011;3221;48.858;10.128;2023-04-25T12:24:32;6.30;;;5.10;;
6376;SDS011;3221;48.858;10.128;2023-04-25T12:27:05;6.83;;;5.40;;
6376;SDS011;3221;48.858;10.128;2023-04-25T12:29:34;8.87;;;5.93;;
6376;SDS011;3221;48.858;10.128;2023-04-25T12:32:15;7.33;;;5.33;;
6376;SDS011;3221;48.858;10.128;2023-04-25T12:34:43;8.10;;;5.90;;
6376;SDS011;3221;48.858;10.128;2023-04-25T12:37:10;7.90;;;5.80;;
6376;SDS011;3221;48.858;10.128;2023-04-25T12:39:37;6.20;;;5.60;;
6376;SDS011;3221;48.858;10.128;2023-04-25T12:42:04;6.43;;;5.33;;
6376;SDS011;3221;48.858;10.128;2023-04-25T12:44:35;7.00;;;5.50;;
6376;SDS011;3221;48.858;10.128;2023-04-25T12:47:02;7.20;;;5.50;;
6376;SDS011;3221;48.858;10.128;2023-04-25T12:49:30;8.27;;;5.77;;
6376;SDS011;3221;48.858;10.128;2023-04-25T12:51:57;9.20;;;6.70;;
6376;SDS011;3221;48.858;10.128;2023-04-25T12:54:24;7.93;;;6.33;;
6376;SDS011;3221;48.858;10.128;2023-04-25T12:56:52;6.87;;;5.60;;
6376;SDS011;3221;48.858;10.128;2023-04-25T12:59:19;7.90;;;5.87;;
6376;SDS011;3221;48.858;10.128;2023-04-25T13:01:46;6.90;;;5.47;;
6376;SDS011;3221;48.858;10.128;2023-04-25T13:04:14;7.93;;;5.60;;
6376;SDS011;3221;48.858;10.128;2023-04-25T13:06:42;6.33;;;5.30;;
6376;SDS011;3221;48.858;10.128;2023-04-25T13:09:09;7.17;;;6.13;;
6376;SDS011;3221;48.858;10.128;2023-04-25T13:11:38;7.30;;;5.67;;
6376;SDS011;3221;48.858;10.128;2023-04-25T13:14:06;7.67;;;5.30;;
6376;SDS011;3221;48.858;10.128;2023-04-25T13:16:33;7.70;;;5.33;;
6376;SDS011;3221;48.858;10.128;2023-04-25T13:19:01;6.37;;;5.07;;
6376;SDS011;3221;48.858;10.128;2023-04-25T13:21:29;6.10;;;4.83;;
6376;SDS011;3221;48.858;10.128;2023-04-25T13:23:58;8.33;;;5.50;;
6376;SDS011;3221;48.858;10.128;2023-04-25T13:26:25;7.07;;;5.80;;
6376;SDS011;3221;48.858;10.128;2023-04-25T13:28:52;7.10;;;5.40;;
6376;SDS011;3221;48.858;10.128;2023-04-25T13:31:19;6.07;;;4.90;;
6376;SDS011;3221;48.858;10.128;2023-04-25T13:33:47;5.93;;;4.90;;
6376;SDS011;3221;48.858;10.128;2023-04-25T13:36:14;6.47;;;4.83;;
6376;SDS011;3221;48.858;10.128;2023-04-25T13:38:42;5.97;;;5.03;;
6376;SDS011;3221;48.858;10.128;2023-04-25T13:41:10;6.33;;;5.07;;
6376;SDS011;3221;48.858;10.128;2023-04-25T13:43:41;7.20;;;5.40;;
6376;SDS011;3221;48.858;10.128;2023-04-25T13:46:08;7.00;;;5.83;;
6376;SDS011;3221;48.858;10.128;2023-04-25T13:48:56;5.63;;;5.03;;
6376;SDS011;3221;48.858;10.128;2023-04-25T13:51:31;6.73;;;5.77;;
6376;SDS011;3221;48.858;10.128;2023-04-25T13:53:58;6.73;;;5.70;;
6376;SDS011;3221;48.858;10.128;2023-04-25T13:56:25;7.23;;;5.43;;
6376;SDS011;3221;48.858;10.128;2023-04-25T13:58:52;6.50;;;5.27;;
6376;SDS011;3221;48.858;10.128;2023-04-25T14:01:19;6.30;;;5.50;;
6376;SDS011;3221;48.858;10.128;2023-04-25T14:03:47;6.47;;;5.20;;
6376;SDS011;3221;48.858;10.128;2023-04-25T14:06:14;5.60;;;4.93;;
6376;SDS011;3221;48.858;10.128;2023-04-25T14:08:49;5.70;;;5.10;;
6376;SDS011;3221;48.858;10.128;2023-04-25T14:11:16;6.30;;;4.90;;
6376;SDS011;3221;48.858;10.128;2023-04-25T14:13:44;5.50;;;4.80;;
6376;SDS011;3221;48.858;10.128;2023-04-25T14:16:12;6.47;;;5.33;;
6376;SDS011;3221;48.858;10.128;2023-04-25T14:18:39;5.23;;;4.73;;
6376;SDS011;3221;48.858;10.128;2023-04-25T14:21:06;4.40;;;3.67;;
6376;SDS011;3221;48.858;10.128;2023-04-25T14:23:33;3.50;;;3.20;;
6376;SDS011;3221;48.858;10.128;2023-04-25T14:26:00;4.27;;;2.90;;
6376;SDS011;3221;48.858;10.128;2023-04-25T14:28:27;3.00;;;2.70;;
6376;SDS011;3221;48.858;10.128;2023-04-25T14:30:54;4.63;;;3.13;;
6376;SDS011;3221;48.858;10.128;2023-04-25T14:33:21;3.70;;;2.63;;
6376;SDS011;3221;48.858;10.128;2023-04-25T14:35:49;4.90;;;2.73;;
6376;SDS011;3221;48.858;10.128;2023-04-25T14:38:16;3.10;;;2.50;;
6376;SDS011;3221;48.858;10.128;2023-04-25T14:40:43;4.33;;;3.27;;
6376;SDS011;3221;48.858;10.128;2023-04-25T14:43:10;4.37;;;3.10;;
6376;SDS011;3221;48.858;10.128;2023-04-25T14:45:37;3.37;;;2.70;;
6376;SDS011;3221;48.858;10.128;2023-04-25T14:48:04;3.83;;;2.60;;
6376;SDS011;3221;48.858;10.128;2023-04-25T14:50:31;3.03;;;2.60;;
6376;SDS011;3221;48.858;10.128;2023-04-25T14:52:58;3.80;;;2.70;;
6376;SDS011;3221;48.858;10.128;2023-04-25T14:55:27;3.80;;;2.97;;
6376;SDS011;3221;48.858;10.128;2023-04-25T14:57:57;4.07;;;3.03;;
6376;SDS011;3221;48.858;10.128;2023-04-25T15:00:24;5.47;;;3.10;;
6376;SDS011;3221;48.858;10.128;2023-04-25T15:02:51;4.70;;;3.10;;
6376;SDS011;3221;48.858;10.128;2023-04-25T15:05:18;4.00;;;3.20;;
6376;SDS011;3221;48.858;10.128;2023-04-25T15:07:46;3.50;;;3.03;;
6376;SDS011;3221;48.858;10.128;2023-04-25T15:10:14;6.07;;;4.07;;
6376;SDS011;3221;48.858;10.128;2023-04-25T15:12:42;4.90;;;3.83;;
6376;SDS011;3221;48.858;10.128;2023-04-25T15:15:12;6.00;;;4.50;;
6376;SDS011;3221;48.858;10.128;2023-04-25T15:17:51;9.80;;;5.97;;
6376;SDS011;3221;48.858;10.128;2023-04-25T15:20:18;8.83;;;5.90;;
6376;SDS011;3221;48.858;10.128;2023-04-25T15:22:45;7.60;;;4.83;;
6376;SDS011;3221;48.858;10.128;2023-04-25T15:25:15;7.47;;;4.50;;
6376;SDS011;3221;48.858;10.128;2023-04-25T15:27:45;5.60;;;4.03;;
6376;SDS011;3221;48.858;10.128;2023-04-25T15:30:15;7.03;;;3.80;;